createdAt,value
2023-12-19T00:00:29.725Z,1012.90
2023-12-19T00:01:29.770Z,1012.74
2023-12-19T00:02:29.631Z,1012.82
2023-12-19T00:03:29.676Z,1012.81
2023-12-19T00:04:29.628Z,1012.80
2023-12-19T00:05:29.607Z,1012.85
2023-12-19T00:06:29.676Z,1012.86
2023-12-19T00:07:29.573Z,1012.85
2023-12-19T00:08:29.569Z,1012.88
2023-12-19T00:09:29.621Z,1012.89
2023-12-19T00:10:29.597Z,1012.89
2023-12-19T00:11:29.681Z,1012.81
2023-12-19T00:12:29.618Z,1012.74
2023-12-19T00:13:29.514Z,1012.67
2023-12-19T00:14:29.543Z,1012.68
2023-12-19T00:15:29.524Z,1012.69
2023-12-19T00:16:29.539Z,1012.72
2023-12-19T00:17:29.508Z,1012.66
2023-12-19T00:18:29.619Z,1012.68
2023-12-19T00:19:29.633Z,1012.69
2023-12-19T00:20:29.442Z,1012.74
2023-12-19T00:21:29.470Z,1012.74
2023-12-19T00:22:29.426Z,1012.75
2023-12-19T00:23:29.436Z,1012.70
2023-12-19T00:24:29.436Z,1012.77
2023-12-19T00:25:29.439Z,1012.75
2023-12-19T00:26:29.374Z,1012.76
2023-12-19T00:27:29.405Z,1012.76
2023-12-19T00:28:29.378Z,1012.83
2023-12-19T00:29:29.379Z,1012.82
2023-12-19T00:30:29.482Z,1012.84
2023-12-19T00:31:29.375Z,1012.86
2023-12-19T00:32:29.360Z,1012.86
2023-12-19T00:33:29.451Z,1012.87
2023-12-19T00:34:29.428Z,1012.91
2023-12-19T00:35:29.313Z,1012.87
2023-12-19T00:36:29.311Z,1012.83
2023-12-19T00:37:29.253Z,1012.80
2023-12-19T00:38:29.304Z,1012.81
2023-12-19T00:39:29.289Z,1012.81
2023-12-19T00:40:29.233Z,1012.84
2023-12-19T00:41:29.230Z,1012.84
2023-12-19T00:42:29.257Z,1012.76
2023-12-19T00:43:29.226Z,1012.81
2023-12-19T00:44:29.208Z,1012.82
2023-12-19T00:45:29.243Z,1012.77
2023-12-19T00:46:29.198Z,1012.76
2023-12-19T00:47:29.201Z,1012.75
2023-12-19T00:48:29.292Z,1012.68
2023-12-19T00:49:29.250Z,1012.65
2023-12-19T00:50:29.170Z,1012.64
2023-12-19T00:51:29.224Z,1012.60
2023-12-19T00:52:29.134Z,1012.59
2023-12-19T00:53:29.104Z,1012.57
2023-12-19T00:54:29.142Z,1012.46
2023-12-19T00:55:29.086Z,1012.51
2023-12-19T00:56:29.084Z,1012.51
2023-12-19T00:57:29.099Z,1012.45
2023-12-19T00:58:29.082Z,1012.42
2023-12-19T00:59:29.045Z,1012.39
2023-12-19T01:00:29.047Z,1012.37
2023-12-19T01:01:29.287Z,1012.35
2023-12-19T01:02:29.049Z,1012.31
2023-12-19T01:03:29.123Z,1012.29
2023-12-19T01:04:29.096Z,1012.27
2023-12-19T01:05:29.059Z,1012.27
2023-12-19T01:06:28.975Z,1012.30
2023-12-19T01:07:29.003Z,1012.22
2023-12-19T01:08:28.944Z,1012.22
2023-12-19T01:09:29.058Z,1012.27
2023-12-19T01:10:28.925Z,1012.25
2023-12-19T01:11:28.978Z,1012.24
2023-12-19T01:12:28.929Z,1012.28
2023-12-19T01:13:28.905Z,1012.20
2023-12-19T01:14:28.885Z,1012.16
2023-12-19T01:15:28.906Z,1012.10
2023-12-19T01:16:28.850Z,1012.07
2023-12-19T01:17:28.895Z,1012.00
2023-12-19T01:18:28.960Z,1012.05
2023-12-19T01:19:28.890Z,1012.00
2023-12-19T01:20:28.824Z,1012.01
2023-12-19T01:21:28.874Z,1011.95
2023-12-19T01:22:28.808Z,1011.95
2023-12-19T01:23:28.791Z,1011.90
2023-12-19T01:24:28.832Z,1011.84
2023-12-19T01:25:28.783Z,1011.86
2023-12-19T01:26:30.758Z,1011.81
2023-12-19T01:27:28.769Z,1011.89
2023-12-19T01:28:28.835Z,1011.82
2023-12-19T01:29:28.731Z,1011.88
2023-12-19T01:30:28.867Z,1011.95
2023-12-19T01:31:28.831Z,1011.91
2023-12-19T01:32:28.736Z,1011.91
2023-12-19T01:33:28.767Z,1011.92
2023-12-19T01:34:28.748Z,1011.96
2023-12-19T01:35:28.667Z,1011.97
2023-12-19T01:36:28.693Z,1011.98
2023-12-19T01:37:28.661Z,1011.98
2023-12-19T01:38:28.670Z,1012.04
2023-12-19T01:39:28.668Z,1012.03
2023-12-19T01:40:28.633Z,1011.94
2023-12-19T01:41:28.588Z,1011.95
2023-12-19T01:42:28.613Z,1011.89
2023-12-19T01:43:28.574Z,1011.88
2023-12-19T01:44:28.565Z,1011.91
2023-12-19T01:45:28.690Z,1011.94
2023-12-19T01:46:28.537Z,1011.92
2023-12-19T01:47:28.562Z,1011.94
2023-12-19T01:48:28.661Z,1011.91
2023-12-19T01:49:28.615Z,1011.95
2023-12-19T01:50:28.512Z,1011.94
2023-12-19T01:51:28.533Z,1011.97
2023-12-19T01:52:28.508Z,1011.92
2023-12-19T01:53:28.507Z,1011.81
2023-12-19T01:54:28.574Z,1011.80
2023-12-19T01:55:28.461Z,1011.78
2023-12-19T01:56:28.486Z,1011.79
2023-12-19T01:57:28.491Z,1011.80
2023-12-19T01:58:28.433Z,1011.81
2023-12-19T01:59:30.215Z,1011.81
2023-12-19T02:00:28.432Z,1011.83
2023-12-19T02:01:28.527Z,1011.85
2023-12-19T02:02:28.405Z,1011.79
2023-12-19T02:03:28.409Z,1011.76
2023-12-19T02:04:28.452Z,1011.72
2023-12-19T02:05:28.405Z,1011.67
2023-12-19T02:06:28.367Z,1011.69
2023-12-19T02:07:28.317Z,1011.66
2023-12-19T02:08:28.341Z,1011.61
2023-12-19T02:09:28.340Z,1011.61
2023-12-19T02:10:28.325Z,1011.59
2023-12-19T02:11:28.283Z,1011.58
2023-12-19T02:12:28.348Z,1011.63
2023-12-19T02:13:28.284Z,1011.60
2023-12-19T02:14:28.254Z,1011.59
2023-12-19T02:15:28.281Z,1011.58
2023-12-19T02:16:32.073Z,1011.55
2023-12-19T02:17:28.255Z,1011.45
2023-12-19T02:18:28.315Z,1011.50
2023-12-19T02:19:28.261Z,1011.53
2023-12-19T02:20:28.195Z,1011.54
2023-12-19T02:21:28.240Z,1011.47
2023-12-19T02:22:28.217Z,1011.52
2023-12-19T02:23:28.174Z,1011.52
2023-12-19T02:24:28.164Z,1011.52
2023-12-19T02:25:28.221Z,1011.47
2023-12-19T02:26:28.137Z,1011.44
2023-12-19T02:27:28.238Z,1011.39
2023-12-19T02:28:28.160Z,1011.38
2023-12-19T02:29:28.092Z,1011.44
2023-12-19T02:30:28.145Z,1011.43
2023-12-19T02:31:28.223Z,1011.47
2023-12-19T02:32:28.142Z,1011.47
2023-12-19T02:33:28.110Z,1011.45
2023-12-19T02:34:28.246Z,1011.39
2023-12-19T02:35:28.067Z,1011.44
2023-12-19T02:36:28.071Z,1011.36
2023-12-19T02:37:28.009Z,1011.37
2023-12-19T02:38:28.002Z,1011.36
2023-12-19T02:39:28.017Z,1011.35
2023-12-19T02:40:27.985Z,1011.38
2023-12-19T02:41:28.028Z,1011.34
2023-12-19T02:42:28.032Z,1011.33
2023-12-19T02:43:27.989Z,1011.34
2023-12-19T02:44:27.937Z,1011.29
2023-12-19T02:45:27.975Z,1011.27
2023-12-19T02:46:27.967Z,1011.23
2023-12-19T02:47:27.914Z,1011.22
2023-12-19T02:48:28.049Z,1011.15
2023-12-19T02:49:28.029Z,1011.20
2023-12-19T02:50:27.897Z,1011.17
2023-12-19T02:51:27.877Z,1011.18
2023-12-19T02:52:27.852Z,1011.19
2023-12-19T02:53:27.902Z,1011.16
2023-12-19T02:54:27.876Z,1011.11
2023-12-19T02:55:27.832Z,1011.10
2023-12-19T02:56:27.833Z,1011.06
2023-12-19T02:57:27.871Z,1011.07
2023-12-19T02:58:27.925Z,1011.08
2023-12-19T02:59:27.777Z,1011.14
2023-12-19T03:00:27.834Z,1011.10
2023-12-19T03:01:27.818Z,1011.12
2023-12-19T03:02:27.770Z,1011.13
2023-12-19T03:03:27.859Z,1011.11
2023-12-19T03:04:27.988Z,1011.09
2023-12-19T03:05:27.852Z,1011.01
2023-12-19T03:06:27.770Z,1010.98
2023-12-19T03:07:27.706Z,1011.04
2023-12-19T03:08:27.723Z,1010.96
2023-12-19T03:09:27.714Z,1010.92
2023-12-19T03:10:27.686Z,1010.96
2023-12-19T03:11:27.667Z,1010.89
2023-12-19T03:12:27.723Z,1010.86
2023-12-19T03:13:27.636Z,1010.89
2023-12-19T03:14:27.635Z,1010.86
2023-12-19T03:15:27.656Z,1010.84
2023-12-19T03:16:27.634Z,1010.79
2023-12-19T03:17:27.684Z,1010.81
2023-12-19T03:18:27.781Z,1010.77
2023-12-19T03:19:27.673Z,1010.75
2023-12-19T03:20:27.618Z,1010.76
2023-12-19T03:21:27.595Z,1010.75
2023-12-19T03:22:27.571Z,1010.67
2023-12-19T03:23:27.527Z,1010.70
2023-12-19T03:24:27.724Z,1010.72
2023-12-19T03:25:27.548Z,1010.68
2023-12-19T03:26:27.506Z,1010.67
2023-12-19T03:27:27.501Z,1010.67
2023-12-19T03:28:27.625Z,1010.66
2023-12-19T03:29:27.530Z,1010.70
2023-12-19T03:30:27.603Z,1010.62
2023-12-19T03:31:27.591Z,1010.65
2023-12-19T03:32:27.483Z,1010.65
2023-12-19T03:33:27.473Z,1010.58
2023-12-19T03:34:27.457Z,1010.51
2023-12-19T03:35:27.434Z,1010.56
2023-12-19T03:36:27.416Z,1010.40
2023-12-19T03:37:27.380Z,1010.44
2023-12-19T03:38:27.424Z,1010.40
2023-12-19T03:39:27.434Z,1010.38
2023-12-19T03:40:27.381Z,1010.36
2023-12-19T03:41:27.344Z,1010.32
2023-12-19T03:42:27.401Z,1010.27
2023-12-19T03:43:27.332Z,1010.23
2023-12-19T03:44:27.365Z,1010.21
2023-12-19T03:45:27.380Z,1010.17
2023-12-19T03:46:27.308Z,1010.16
2023-12-19T03:47:27.300Z,1010.14
2023-12-19T03:48:27.378Z,1010.19
2023-12-19T03:49:27.348Z,1010.22
2023-12-19T03:50:27.257Z,1010.21
2023-12-19T03:51:27.312Z,1010.19
2023-12-19T03:52:27.232Z,1010.25
2023-12-19T03:53:27.242Z,1010.22
2023-12-19T03:54:27.212Z,1010.26
2023-12-19T03:55:27.210Z,1010.17
2023-12-19T03:56:27.256Z,1010.16
2023-12-19T03:57:27.217Z,1010.13
2023-12-19T03:58:27.177Z,1010.14
2023-12-19T03:59:27.160Z,1010.08
2023-12-19T04:00:27.193Z,1010.07
2023-12-19T04:01:27.315Z,1010.00
2023-12-19T04:02:27.151Z,1009.97
2023-12-19T04:03:27.134Z,1009.95
2023-12-19T04:04:27.234Z,1009.92
2023-12-19T04:05:27.250Z,1009.92
2023-12-19T04:06:27.124Z,1009.91
2023-12-19T04:07:27.129Z,1009.86
2023-12-19T04:08:27.093Z,1009.87
2023-12-19T04:09:27.149Z,1009.81
2023-12-19T04:10:27.067Z,1009.82
2023-12-19T04:11:27.032Z,1009.80
2023-12-19T04:12:27.072Z,1009.82
2023-12-19T04:13:27.023Z,1009.80
2023-12-19T04:14:27.019Z,1009.81
2023-12-19T04:15:27.086Z,1009.78
2023-12-19T04:16:27.018Z,1009.78
2023-12-19T04:17:27.099Z,1009.82
2023-12-19T04:18:27.090Z,1009.78
2023-12-19T04:19:27.058Z,1009.80
2023-12-19T04:20:26.945Z,1009.81
2023-12-19T04:21:27.080Z,1009.76
2023-12-19T04:22:26.951Z,1009.80
2023-12-19T04:23:26.946Z,1009.78
2023-12-19T04:24:26.933Z,1009.77
2023-12-19T04:25:26.955Z,1009.67
2023-12-19T04:26:26.893Z,1009.67
2023-12-19T04:27:26.953Z,1009.73
2023-12-19T04:28:26.975Z,1009.73
2023-12-19T04:29:26.859Z,1009.72
2023-12-19T04:30:26.952Z,1009.77
2023-12-19T04:31:26.996Z,1009.73
2023-12-19T04:32:27.042Z,1009.72
2023-12-19T04:33:27.029Z,1009.75
2023-12-19T04:34:26.943Z,1009.78
2023-12-19T04:35:26.973Z,1009.73
2023-12-19T04:36:26.935Z,1009.76
2023-12-19T04:37:26.805Z,1009.75
2023-12-19T04:38:26.865Z,1009.72
2023-12-19T04:39:26.776Z,1009.76
2023-12-19T04:40:26.754Z,1009.71
2023-12-19T04:41:26.741Z,1009.73
2023-12-19T04:42:26.758Z,1009.72
2023-12-19T04:43:26.713Z,1009.78
2023-12-19T04:44:27.475Z,1009.69
2023-12-19T04:45:26.702Z,1009.71
2023-12-19T04:46:26.681Z,1009.69
2023-12-19T04:47:26.769Z,1009.65
2023-12-19T04:48:26.694Z,1009.60
2023-12-19T04:49:26.700Z,1009.54
2023-12-19T04:50:28.523Z,1009.52
2023-12-19T04:51:26.672Z,1009.50
2023-12-19T04:52:26.625Z,1009.47
2023-12-19T04:53:26.606Z,1009.40
2023-12-19T04:54:26.779Z,1009.30
2023-12-19T04:55:26.607Z,1009.22
2023-12-19T04:56:26.592Z,1009.24
2023-12-19T04:57:34.792Z,1009.18
2023-12-19T04:58:26.606Z,1009.16
2023-12-19T04:59:26.611Z,1009.18
2023-12-19T05:00:26.565Z,1009.12
2023-12-19T05:01:26.737Z,1009.07
2023-12-19T05:02:26.514Z,1009.04
2023-12-19T05:03:26.609Z,1008.98
2023-12-19T05:04:26.551Z,1008.98
2023-12-19T05:05:26.523Z,1008.94
2023-12-19T05:06:26.504Z,1008.86
2023-12-19T05:07:26.462Z,1008.93
2023-12-19T05:08:26.497Z,1008.87
2023-12-19T05:09:26.500Z,1008.88
2023-12-19T05:10:26.483Z,1008.84
2023-12-19T05:11:26.432Z,1008.86
2023-12-19T05:12:26.449Z,1008.86
2023-12-19T05:13:26.401Z,1008.82
2023-12-19T05:14:26.446Z,1008.81
2023-12-19T05:15:28.017Z,1008.81
2023-12-19T05:16:30.496Z,1008.81
2023-12-19T05:17:26.410Z,1008.85
2023-12-19T05:18:26.479Z,1008.87
2023-12-19T05:19:26.505Z,1008.87
2023-12-19T05:20:26.434Z,1008.90
2023-12-19T05:21:26.340Z,1008.97
2023-12-19T05:22:26.330Z,1008.89
2023-12-19T05:23:26.337Z,1008.88
2023-12-19T05:24:26.295Z,1008.92
2023-12-19T05:25:27.216Z,1008.90
2023-12-19T05:26:26.435Z,1008.97
2023-12-19T05:27:26.309Z,1008.93
2023-12-19T05:28:26.260Z,1008.93
2023-12-19T05:29:26.243Z,1008.88
2023-12-19T05:30:26.333Z,1008.92
2023-12-19T05:31:26.313Z,1008.84
2023-12-19T05:32:26.251Z,1008.73
2023-12-19T05:33:26.273Z,1008.82
2023-12-19T05:34:26.259Z,1008.82
2023-12-19T05:35:26.200Z,1008.79
2023-12-19T05:36:26.248Z,1008.81
2023-12-19T05:37:26.199Z,1008.81
2023-12-19T05:38:26.132Z,1008.81
2023-12-19T05:39:26.141Z,1008.81
2023-12-19T05:40:26.125Z,1008.88
2023-12-19T05:41:26.130Z,1008.84
2023-12-19T05:42:26.184Z,1008.90
2023-12-19T05:43:26.094Z,1008.88
2023-12-19T05:44:26.079Z,1008.91
2023-12-19T05:45:26.163Z,1008.90
2023-12-19T05:46:26.138Z,1008.92
2023-12-19T05:47:26.080Z,1008.91
2023-12-19T05:48:26.310Z,1008.95
2023-12-19T05:49:26.155Z,1008.90
2023-12-19T05:50:26.034Z,1008.93
2023-12-19T05:51:26.231Z,1008.90
2023-12-19T05:52:26.022Z,1008.86
2023-12-19T05:53:26.004Z,1008.85
2023-12-19T05:54:26.067Z,1008.73
2023-12-19T05:55:25.999Z,1008.85
2023-12-19T05:56:25.962Z,1008.79
2023-12-19T05:57:25.957Z,1008.73
2023-12-19T05:58:25.954Z,1008.71
2023-12-19T05:59:25.949Z,1008.63
2023-12-19T06:00:25.932Z,1008.65
2023-12-19T06:01:26.030Z,1008.62
2023-12-19T06:02:25.895Z,1008.61
2023-12-19T06:03:25.975Z,1008.64
2023-12-19T06:04:25.990Z,1008.62
2023-12-19T06:05:25.922Z,1008.65
2023-12-19T06:06:25.943Z,1008.70
2023-12-19T06:07:25.882Z,1008.60
2023-12-19T06:08:25.830Z,1008.59
2023-12-19T06:09:25.887Z,1008.67
2023-12-19T06:10:25.807Z,1008.62
2023-12-19T06:11:25.949Z,1008.63
2023-12-19T06:12:25.829Z,1008.64
2023-12-19T06:13:25.780Z,1008.70
2023-12-19T06:14:25.804Z,1008.67
2023-12-19T06:15:25.898Z,1008.70
2023-12-19T06:16:25.801Z,1008.64
2023-12-19T06:17:25.924Z,1008.70
2023-12-19T06:18:25.855Z,1008.75
2023-12-19T06:19:25.777Z,1008.70
2023-12-19T06:20:25.697Z,1008.74
2023-12-19T06:21:25.774Z,1008.72
2023-12-19T06:22:25.686Z,1008.68
2023-12-19T06:23:25.673Z,1008.68
2023-12-19T06:24:25.730Z,1008.71
2023-12-19T06:25:25.643Z,1008.69
2023-12-19T06:26:25.673Z,1008.61
2023-12-19T06:27:25.685Z,1008.65
2023-12-19T06:28:25.661Z,1008.69
2023-12-19T06:29:25.614Z,1008.66
2023-12-19T06:30:29.425Z,1008.68
2023-12-19T06:31:25.701Z,1008.66
2023-12-19T06:32:25.626Z,1008.68
2023-12-19T06:33:25.707Z,1008.61
2023-12-19T06:34:25.655Z,1008.59
2023-12-19T06:35:25.574Z,1008.61
2023-12-19T06:36:25.566Z,1008.59
2023-12-19T06:37:25.589Z,1008.61
2023-12-19T06:38:25.529Z,1008.61
2023-12-19T06:39:25.538Z,1008.58
2023-12-19T06:40:25.645Z,1008.65
2023-12-19T06:41:25.562Z,1008.60
2023-12-19T06:42:25.543Z,1008.63
2023-12-19T06:43:25.481Z,1008.67
2023-12-19T06:44:25.479Z,1008.64
2023-12-19T06:45:25.470Z,1008.63
2023-12-19T06:46:25.436Z,1008.67
2023-12-19T06:47:25.829Z,1008.66
2023-12-19T06:48:25.493Z,1008.63
2023-12-19T06:49:25.452Z,1008.59
2023-12-19T06:50:25.476Z,1008.62
2023-12-19T06:51:25.880Z,1008.53
2023-12-19T06:52:25.984Z,1008.51
2023-12-19T06:53:25.373Z,1008.51
2023-12-19T06:54:26.180Z,1008.51
2023-12-19T06:55:25.392Z,1008.52
2023-12-19T06:56:25.358Z,1008.49
2023-12-19T06:57:25.383Z,1008.43
2023-12-19T06:58:25.343Z,1008.48
2023-12-19T06:59:25.309Z,1008.45
2023-12-19T07:00:25.457Z,1008.45
2023-12-19T07:01:25.399Z,1008.41
2023-12-19T07:02:25.300Z,1008.40
2023-12-19T07:03:25.474Z,1008.36
2023-12-19T07:04:25.383Z,1008.32
2023-12-19T07:05:25.396Z,1008.34
2023-12-19T07:06:25.312Z,1008.32
2023-12-19T07:07:25.212Z,1008.32
2023-12-19T07:08:25.860Z,1008.23
2023-12-19T07:09:25.247Z,1008.20
2023-12-19T07:10:25.240Z,1008.16
2023-12-19T07:11:25.246Z,1008.16
2023-12-19T07:12:25.300Z,1008.09
2023-12-19T07:13:25.144Z,1008.10
2023-12-19T07:14:25.104Z,1008.07
2023-12-19T07:15:25.121Z,1008.06
2023-12-19T07:16:25.049Z,1008.07
2023-12-19T07:17:25.084Z,1008.10
2023-12-19T07:18:25.238Z,1008.10
2023-12-19T07:19:25.077Z,1008.08
2023-12-19T07:20:25.016Z,1008.12
2023-12-19T07:21:25.120Z,1008.07
2023-12-19T07:22:25.006Z,1008.10
2023-12-19T07:23:24.998Z,1008.09
2023-12-19T07:24:25.034Z,1008.05
2023-12-19T07:25:24.979Z,1008.08
2023-12-19T07:26:24.972Z,1008.06
2023-12-19T07:27:25.030Z,1008.00
2023-12-19T07:28:25.093Z,1008.05
2023-12-19T07:29:24.923Z,1008.07
2023-12-19T07:30:24.958Z,1008.03
2023-12-19T07:31:25.023Z,1007.97
2023-12-19T07:32:24.896Z,1007.96
2023-12-19T07:33:24.958Z,1007.97
2023-12-19T07:34:25.030Z,1007.97
2023-12-19T07:35:24.902Z,1007.94
2023-12-19T07:36:24.929Z,1007.94
2023-12-19T07:37:24.845Z,1007.91
2023-12-19T07:38:24.955Z,1007.90
2023-12-19T07:39:24.829Z,1007.94
2023-12-19T07:40:24.827Z,1007.94
2023-12-19T07:41:24.813Z,1007.84
2023-12-19T07:42:24.859Z,1007.88
2023-12-19T07:43:24.834Z,1007.87
2023-12-19T07:44:24.977Z,1007.87
2023-12-19T07:45:24.863Z,1007.81
2023-12-19T07:46:24.777Z,1007.85
2023-12-19T07:47:24.745Z,1007.81
2023-12-19T07:48:24.839Z,1007.83
2023-12-19T07:49:24.829Z,1007.80
2023-12-19T07:50:24.771Z,1007.79
2023-12-19T07:51:25.002Z,1007.83
2023-12-19T07:52:24.688Z,1007.85
2023-12-19T07:53:24.752Z,1007.81
2023-12-19T07:54:24.712Z,1007.82
2023-12-19T07:55:24.674Z,1007.80
2023-12-19T07:56:24.706Z,1007.84
2023-12-19T07:57:24.655Z,1007.87
2023-12-19T07:58:24.655Z,1007.83
2023-12-19T07:59:24.703Z,1007.80
2023-12-19T08:00:24.646Z,1007.82
2023-12-19T08:01:24.695Z,1007.83
2023-12-19T08:02:24.645Z,1007.77
2023-12-19T08:03:24.647Z,1007.72
2023-12-19T08:04:24.638Z,1007.72
2023-12-19T08:05:24.629Z,1007.70
2023-12-19T08:06:24.653Z,1007.75
2023-12-19T08:07:24.544Z,1007.75
2023-12-19T08:08:24.617Z,1007.72
2023-12-19T08:09:24.653Z,1007.73
2023-12-19T08:10:24.648Z,1007.78
2023-12-19T08:11:24.541Z,1007.77
2023-12-19T08:12:24.526Z,1007.80
2023-12-19T08:13:26.173Z,1007.77
2023-12-19T08:14:24.558Z,1007.77
2023-12-19T08:15:24.494Z,1007.75
2023-12-19T08:16:24.521Z,1007.71
2023-12-19T08:17:24.446Z,1007.79
2023-12-19T08:18:24.669Z,1007.83
2023-12-19T08:19:24.532Z,1007.73
2023-12-19T08:20:24.408Z,1007.75
2023-12-19T08:21:24.442Z,1007.73
2023-12-19T08:22:24.412Z,1007.75
2023-12-19T08:23:24.395Z,1007.72
2023-12-19T08:24:24.468Z,1007.80
2023-12-19T08:25:24.392Z,1007.79
2023-12-19T08:26:24.417Z,1007.76
2023-12-19T08:27:24.484Z,1007.86
2023-12-19T08:28:24.343Z,1007.78
2023-12-19T08:29:24.333Z,1007.77
2023-12-19T08:30:24.457Z,1007.81
2023-12-19T08:31:24.490Z,1007.76
2023-12-19T08:32:24.277Z,1007.73
2023-12-19T08:33:24.814Z,1007.71
2023-12-19T08:34:24.369Z,1007.62
2023-12-19T08:35:24.442Z,1007.63
2023-12-19T08:36:33.593Z,1007.67
2023-12-19T08:37:24.254Z,1007.72
2023-12-19T08:38:24.224Z,1007.68
2023-12-19T08:39:24.199Z,1007.67
2023-12-19T08:40:24.206Z,1007.64
2023-12-19T08:41:24.242Z,1007.67
2023-12-19T08:42:24.292Z,1007.59
2023-12-19T08:43:24.179Z,1007.55
2023-12-19T08:44:24.161Z,1007.55
2023-12-19T08:45:24.242Z,1007.54
2023-12-19T08:46:24.142Z,1007.54
2023-12-19T08:47:24.194Z,1007.55
2023-12-19T08:48:24.290Z,1007.47
2023-12-19T08:49:24.266Z,1007.38
2023-12-19T08:50:24.111Z,1007.42
2023-12-19T08:51:24.136Z,1007.34
2023-12-19T08:52:24.222Z,1007.33
2023-12-19T08:53:24.090Z,1007.30
2023-12-19T08:54:24.057Z,1007.33
2023-12-19T08:55:24.056Z,1007.30
2023-12-19T08:56:24.286Z,1007.31
2023-12-19T08:57:24.072Z,1007.22
2023-12-19T08:58:24.017Z,1007.24
2023-12-19T08:59:23.998Z,1007.24
2023-12-19T09:00:24.033Z,1007.31
2023-12-19T09:01:24.043Z,1007.26
2023-12-19T09:02:24.001Z,1007.30
2023-12-19T09:03:24.013Z,1007.26
2023-12-19T09:04:24.002Z,1007.19
2023-12-19T09:05:24.167Z,1007.28
2023-12-19T09:06:23.935Z,1007.29
2023-12-19T09:07:24.001Z,1007.28
2023-12-19T09:08:23.923Z,1007.15
2023-12-19T09:09:23.906Z,1007.17
2023-12-19T09:10:23.937Z,1007.19
2023-12-19T09:11:23.883Z,1007.22
2023-12-19T09:12:23.933Z,1007.20
2023-12-19T09:13:23.895Z,1007.19
2023-12-19T09:14:23.886Z,1007.22
2023-12-19T09:15:23.850Z,1007.16
2023-12-19T09:16:23.856Z,1007.10
2023-12-19T09:17:23.825Z,1007.13
2023-12-19T09:18:23.908Z,1007.14
2023-12-19T09:19:23.872Z,1007.09
2023-12-19T09:20:23.808Z,1007.14
2023-12-19T09:21:23.797Z,1007.10
2023-12-19T09:22:23.837Z,1007.07
2023-12-19T09:23:23.786Z,1007.12
2023-12-19T09:24:23.756Z,1007.10
2023-12-19T09:25:23.807Z,1007.15
2023-12-19T09:26:23.755Z,1007.13
2023-12-19T09:27:23.716Z,1007.14
2023-12-19T09:28:23.787Z,1007.11
2023-12-19T09:29:23.718Z,1007.08
2023-12-19T09:30:23.770Z,1007.07
2023-12-19T09:31:23.856Z,1006.99
2023-12-19T09:32:23.806Z,1006.98
2023-12-19T09:33:23.791Z,1006.96
2023-12-19T09:34:23.786Z,1006.99
2023-12-19T09:35:23.741Z,1007.02
2023-12-19T09:36:23.646Z,1007.01
2023-12-19T09:37:23.632Z,1007.03
2023-12-19T09:38:23.628Z,1006.99
2023-12-19T09:39:23.621Z,1006.98
2023-12-19T09:40:23.599Z,1007.00
2023-12-19T09:41:23.618Z,1006.97
2023-12-19T09:42:23.558Z,1007.02
2023-12-19T09:43:23.633Z,1006.98
2023-12-19T09:44:26.274Z,1006.91
2023-12-19T09:45:23.572Z,1006.98
2023-12-19T09:46:23.531Z,1006.98
2023-12-19T09:47:23.535Z,1006.93
2023-12-19T09:48:23.619Z,1006.97
2023-12-19T09:49:23.651Z,1006.97
2023-12-19T09:50:23.480Z,1006.94
2023-12-19T09:51:23.472Z,1006.89
2023-12-19T09:52:23.556Z,1006.90
2023-12-19T09:53:25.852Z,1006.92
2023-12-19T09:54:23.466Z,1006.98
2023-12-19T09:55:23.435Z,1006.93
2023-12-19T09:56:23.438Z,1006.88
2023-12-19T09:57:23.409Z,1006.89
2023-12-19T09:58:23.425Z,1006.83
2023-12-19T09:59:23.438Z,1006.86
2023-12-19T10:00:23.388Z,1006.83
2023-12-19T10:01:26.078Z,1006.80
2023-12-19T10:02:23.383Z,1006.79
2023-12-19T10:03:23.401Z,1006.75
2023-12-19T10:04:23.420Z,1006.75
2023-12-19T10:05:23.397Z,1006.76
2023-12-19T10:06:23.350Z,1006.78
2023-12-19T10:07:23.387Z,1006.73
2023-12-19T10:08:23.300Z,1006.76
2023-12-19T10:09:23.372Z,1006.69
2023-12-19T10:10:23.364Z,1006.62
2023-12-19T10:11:23.285Z,1006.61
2023-12-19T10:12:23.320Z,1006.63
2023-12-19T10:13:23.270Z,1006.61
2023-12-19T10:14:23.252Z,1006.60
2023-12-19T10:15:23.333Z,1006.60
2023-12-19T10:16:32.023Z,1006.54
2023-12-19T10:17:23.197Z,1006.58
2023-12-19T10:18:31.166Z,1006.59
2023-12-19T10:19:23.297Z,1006.56
2023-12-19T10:20:23.282Z,1006.49
2023-12-19T10:21:23.171Z,1006.53
2023-12-19T10:22:23.160Z,1006.52
2023-12-19T10:23:23.169Z,1006.48
2023-12-19T10:24:23.158Z,1006.48
2023-12-19T10:25:23.435Z,1006.45
2023-12-19T10:26:23.122Z,1006.42
2023-12-19T10:27:23.139Z,1006.40
2023-12-19T10:28:23.115Z,1006.39
2023-12-19T10:29:23.081Z,1006.36
2023-12-19T10:30:23.170Z,1006.38
2023-12-19T10:31:23.168Z,1006.34
2023-12-19T10:32:23.056Z,1006.33
2023-12-19T10:33:23.159Z,1006.28
2023-12-19T10:34:23.136Z,1006.26
2023-12-19T10:35:23.084Z,1006.21
2023-12-19T10:36:23.034Z,1006.22
2023-12-19T10:37:24.983Z,1006.19
2023-12-19T10:38:23.088Z,1006.18
2023-12-19T10:39:22.983Z,1006.13
2023-12-19T10:40:22.995Z,1006.09
2023-12-19T10:41:22.951Z,1006.10
2023-12-19T10:42:22.993Z,1006.15
2023-12-19T10:43:22.949Z,1006.11
2023-12-19T10:44:22.950Z,1006.13
2023-12-19T10:45:22.964Z,1006.07
2023-12-19T10:46:22.925Z,1006.12
2023-12-19T10:47:22.894Z,1006.06
2023-12-19T10:48:22.960Z,1006.05
2023-12-19T10:49:22.935Z,1006.06
2023-12-19T10:50:23.010Z,1006.02
2023-12-19T10:51:22.872Z,1005.96
2023-12-19T10:52:22.838Z,1006.04
2023-12-19T10:53:22.832Z,1005.97
2023-12-19T10:54:22.864Z,1005.93
2023-12-19T10:55:24.266Z,1005.90
2023-12-19T10:56:22.809Z,1005.94
2023-12-19T10:57:22.792Z,1005.93
2023-12-19T10:58:22.855Z,1005.81
2023-12-19T10:59:22.783Z,1005.82
2023-12-19T11:00:22.772Z,1005.82
2023-12-19T11:01:22.901Z,1005.77
2023-12-19T11:02:22.760Z,1005.75
2023-12-19T11:03:22.785Z,1005.74
2023-12-19T11:04:22.828Z,1005.76
2023-12-19T11:05:22.810Z,1005.64
2023-12-19T11:06:22.722Z,1005.57
2023-12-19T11:07:22.709Z,1005.58
2023-12-19T11:08:22.754Z,1005.58
2023-12-19T11:09:22.685Z,1005.58
2023-12-19T11:10:22.661Z,1005.61
2023-12-19T11:11:22.660Z,1005.61
2023-12-19T11:12:22.678Z,1005.53
2023-12-19T11:13:22.631Z,1005.50
2023-12-19T11:14:22.632Z,1005.50
2023-12-19T11:15:22.668Z,1005.51
2023-12-19T11:16:22.602Z,1005.44
2023-12-19T11:17:22.649Z,1005.47
2023-12-19T11:18:22.690Z,1005.43
2023-12-19T11:19:22.657Z,1005.44
2023-12-19T11:20:22.815Z,1005.30
2023-12-19T11:21:22.574Z,1005.38
2023-12-19T11:22:22.560Z,1005.40
2023-12-19T11:23:22.536Z,1005.40
2023-12-19T11:24:22.516Z,1005.39
2023-12-19T11:25:26.383Z,1005.32
2023-12-19T11:26:22.506Z,1005.37
2023-12-19T11:27:22.513Z,1005.35
2023-12-19T11:28:22.527Z,1005.38
2023-12-19T11:29:22.480Z,1005.32
2023-12-19T11:30:22.468Z,1005.33
2023-12-19T11:31:24.493Z,1005.30
2023-12-19T11:32:22.518Z,1005.38
2023-12-19T11:33:22.482Z,1005.38
2023-12-19T11:34:22.591Z,1005.35
2023-12-19T11:35:22.418Z,1005.39
2023-12-19T11:36:22.427Z,1005.34
2023-12-19T11:37:24.902Z,1005.39
2023-12-19T11:38:22.378Z,1005.45
2023-12-19T11:39:22.433Z,1005.43
2023-12-19T11:40:22.375Z,1005.43
2023-12-19T11:41:22.349Z,1005.32
2023-12-19T11:42:22.334Z,1005.36
2023-12-19T11:43:23.976Z,1005.31
2023-12-19T11:44:22.348Z,1005.26
2023-12-19T11:45:22.331Z,1005.23
2023-12-19T11:46:22.299Z,1005.17
2023-12-19T11:47:22.301Z,1005.14
2023-12-19T11:48:22.298Z,1005.14
2023-12-19T11:49:22.356Z,1005.16
2023-12-19T11:50:22.334Z,1005.11
2023-12-19T11:51:22.271Z,1005.05
2023-12-19T11:52:22.229Z,1005.05
2023-12-19T11:53:22.227Z,1005.08
2023-12-19T11:54:22.234Z,1004.95
2023-12-19T11:55:22.222Z,1004.95
2023-12-19T11:56:22.192Z,1004.92
2023-12-19T11:57:22.204Z,1004.95
2023-12-19T11:58:22.205Z,1004.87
2023-12-19T11:59:22.175Z,1004.85
2023-12-19T12:00:22.163Z,1004.87
2023-12-19T12:01:22.254Z,1004.89
2023-12-19T12:02:22.187Z,1004.84
2023-12-19T12:03:22.136Z,1004.82
2023-12-19T12:04:22.224Z,1004.86
2023-12-19T12:05:22.179Z,1004.80